Time;durP1;ratioP1;P1;durP2;ratioP2;P2;SDS_P1;SDS_P2;PMS_P1;PMS_P2;Temp;Humidity;BMP_temperature;BMP_pressure;BME280_temperature;BME280_humidity;BME280_pressure;Samples;Min_cycle;Max_cycle;Signal;HPM_P1;HPM_P2
2022/02/03 00:00:16;;;;;;;29.63;13.70;;;;;;;;;;5033158;28;20455;-50
2022/02/03 00:02:51;;;;;;;25.00;13.10;;;;;;;;;;5033496;28;20401;-50
2022/02/03 00:05:24;;;;;;;26.93;12.27;;;;;;;;;;5033510;28;20408;-50
2022/02/03 00:08:17;;;;;;;25.20;11.63;;;;;;;;;;5033445;28;20395;-51
2022/02/03 00:24:45;;;;;;;26.90;11.93;;;;;;;;;;5033350;28;20451;-50
2022/02/03 00:27:18;;;;;;;32.43;12.83;;;;;;;;;;5033850;28;20487;-51
2022/02/03 00:35:20;;;;;;;28.67;13.50;;;;;;;;;;5064104;28;20412;-51
2022/02/03 00:48:58;;;;;;;32.63;13.53;;;;;;;;;;5042695;28;20818;-51
2022/02/03 00:51:25;;;;;;;36.47;15.17;;;;;;;;;;5042777;28;20793;-51
2022/02/03 00:53:52;;;;;;;37.87;15.70;;;;;;;;;;5042839;28;20473;-51
2022/02/03 00:56:26;;;;;;;41.93;18.07;;;;;;;;;;5043709;28;20433;-51
2022/02/03 00:58:53;;;;;;;37.10;16.37;;;;;;;;;;5043527;28;20465;-51
2022/02/03 01:01:20;;;;;;;39.07;18.23;;;;;;;;;;5043037;28;20495;-51
2022/02/03 01:03:51;;;;;;;45.63;17.33;;;;;;;;;;5043146;28;20409;-52
2022/02/03 01:06:19;;;;;;;47.73;17.30;;;;;;;;;;5043319;28;20437;-51
2022/02/03 01:08:47;;;;;;;41.50;17.07;;;;;;;;;;5042288;28;20460;-52
2022/02/03 01:11:20;;;;;;;35.43;16.90;;;;;;;;;;5042928;28;20429;-51
2022/02/03 01:13:56;;;;;;;48.03;16.70;;;;;;;;;;5043952;28;20536;-52
2022/02/03 01:21:46;;;;;;;40.90;16.70;;;;;;;;;;5042497;28;20882;-52
2022/02/03 01:43:27;;;;;;;47.20;16.67;;;;;;;;;;5041860;28;20493;-51
2022/02/03 01:45:56;;;;;;;40.73;17.67;;;;;;;;;;5041498;28;20400;-52
2022/02/03 01:53:36;;;;;;;50.33;16.20;;;;;;;;;;5041182;28;20405;-51
2022/02/03 01:56:06;;;;;;;43.83;17.03;;;;;;;;;;5041117;28;20754;-51
2022/02/03 01:58:39;;;;;;;40.33;16.23;;;;;;;;;;5040812;28;20405;-51
2022/02/03 02:01:05;;;;;;;32.73;13.90;;;;;;;;;;5039688;28;20462;-51
2022/02/03 02:03:43;;;;;;;43.60;17.57;;;;;;;;;;5041971;28;20396;-51
2022/02/03 02:06:28;;;;;;;55.70;18.83;;;;;;;;;;5040879;28;20428;-52
2022/02/03 02:08:57;;;;;;;41.37;17.03;;;;;;;;;;5039352;28;20436;-51
2022/02/03 02:11:48;;;;;;;36.33;15.83;;;;;;;;;;5040902;28;20429;-52
2022/02/03 02:19:57;;;;;;;42.03;18.47;;;;;;;;;;5040997;28;20489;-52
2022/02/03 02:39:12;;;;;;;37.73;17.23;;;;;;;;;;5061557;28;20408;-52
2022/02/03 02:44:37;;;;;;;42.17;18.97;;;;;;;;;;5061754;28;20828;-50
2022/02/03 02:47:08;;;;;;;43.60;19.80;;;;;;;;;;5061696;28;20438;-52
2022/02/03 02:50:12;;;;;;;40.87;17.63;;;;;;;;;;5061104;28;20397;-51
2022/02/03 02:52:44;;;;;;;40.43;17.03;;;;;;;;;;5037841;28;20433;-51
2022/02/03 03:03:44;;;;;;;37.53;18.90;;;;;;;;;;5041783;28;20404;-51
2022/02/03 03:36:00;;;;;;;35.17;17.63;;;;;;;;;;5045447;28;20437;-51
2022/02/03 03:38:31;;;;;;;35.43;17.90;;;;;;;;;;5044825;28;20390;-51
2022/02/03 03:40:58;;;;;;;32.43;16.37;;;;;;;;;;5044076;28;20468;-51
2022/02/03 03:43:30;;;;;;;35.33;17.23;;;;;;;;;;5044543;28;20433;-52
2022/02/03 03:45:56;;;;;;;38.60;16.70;;;;;;;;;;5044535;28;20433;-51
2022/02/03 03:48:29;;;;;;;38.80;16.37;;;;;;;;;;5044505;28;20422;-51
2022/02/03 03:51:01;;;;;;;38.73;15.97;;;;;;;;;;5044337;28;20512;-51
2022/02/03 03:53:39;;;;;;;35.70;16.83;;;;;;;;;;5044016;28;20428;-51
2022/02/03 03:56:24;;;;;;;41.47;17.10;;;;;;;;;;5044764;28;20402;-51
2022/02/03 04:33:58;;;;;;;52.03;22.53;;;;;;;;;;5063262;28;20405;-51
2022/02/03 04:37:05;;;;;;;41.37;20.87;;;;;;;;;;5063778;28;20412;-51
2022/02/03 05:04:27;;;;;;;36.13;15.60;;;;;;;;;;5062846;28;20402;-52
2022/02/03 05:07:27;;;;;;;25.50;13.57;;;;;;;;;;5061377;28;20435;-51
2022/02/03 05:10:08;;;;;;;22.20;13.33;;;;;;;;;;5062558;28;20440;-51
2022/02/03 05:13:02;;;;;;;21.90;11.90;;;;;;;;;;5063120;28;20413;-51
2022/02/03 05:18:54;;;;;;;23.67;13.50;;;;;;;;;;5051396;28;20443;-51
2022/02/03 05:24:49;;;;;;;22.60;11.93;;;;;;;;;;5056519;28;20438;-51
2022/02/03 05:33:17;;;;;;;22.63;11.90;;;;;;;;;;5063068;28;20436;-51
2022/02/03 05:45:06;;;;;;;19.73;11.00;;;;;;;;;;5062117;28;20851;-51
2022/02/03 05:47:17;;;;;;;18.90;10.73;;;;;;;;;;5057589;28;20425;-52
2022/02/03 05:50:16;;;;;;;19.87;10.93;;;;;;;;;;5061585;28;20526;-51
2022/02/03 06:09:36;;;;;;;18.53;10.47;;;;;;;;;;5041643;28;20413;-52
2022/02/03 06:14:53;;;;;;;12.53;9.27;;;;;;;;;;5040149;28;20457;-51
2022/02/03 06:22:57;;;;;;;15.10;9.90;;;;;;;;;;5059904;28;20489;-52
2022/02/03 06:28:09;;;;;;;16.07;10.23;;;;;;;;;;5056446;28;20400;-51
2022/02/03 06:30:35;;;;;;;22.27;10.10;;;;;;;;;;5050725;28;20420;-50
2022/02/03 06:33:01;;;;;;;15.77;10.07;;;;;;;;;;5058452;28;20412;-51
2022/02/03 06:35:27;;;;;;;12.77;7.90;;;;;;;;;;5061182;28;20466;-52
2022/02/03 06:37:53;;;;;;;12.50;8.37;;;;;;;;;;5061528;28;20405;-52
2022/02/03 06:40:19;;;;;;;12.90;8.67;;;;;;;;;;5061036;28;20469;-52
2022/02/03 06:42:46;;;;;;;18.30;9.20;;;;;;;;;;5059284;28;20419;-51
2022/02/03 06:45:23;;;;;;;16.07;8.73;;;;;;;;;;5060633;28;20404;-51
2022/02/03 06:50:19;;;;;;;12.90;7.70;;;;;;;;;;5060053;28;20428;-51
2022/02/03 06:53:20;;;;;;;11.23;8.23;;;;;;;;;;5045302;28;20511;-51
2022/02/03 06:56:06;;;;;;;12.83;8.13;;;;;;;;;;5044467;28;20405;-51
2022/02/03 06:58:57;;;;;;;13.77;7.80;;;;;;;;;;5045073;28;20411;-51
2022/02/03 07:01:24;;;;;;;9.37;7.03;;;;;;;;;;5044380;28;20468;-51
2022/02/03 07:03:57;;;;;;;11.87;7.90;;;;;;;;;;5044646;28;20410;-52
2022/02/03 07:06:23;;;;;;;11.60;8.10;;;;;;;;;;5044942;28;20443;-51
2022/02/03 07:08:51;;;;;;;12.30;8.70;;;;;;;;;;5044443;28;20431;-51
2022/02/03 07:11:20;;;;;;;14.70;8.37;;;;;;;;;;5044420;28;20494;-51
2022/02/03 07:13:46;;;;;;;9.97;7.43;;;;;;;;;;5044844;28;20414;-51
2022/02/03 07:16:12;;;;;;;18.23;8.60;;;;;;;;;;5044547;28;20417;-52
2022/02/03 07:18:39;;;;;;;15.00;8.33;;;;;;;;;;5044205;28;20416;-51
2022/02/03 07:21:05;;;;;;;18.83;8.20;;;;;;;;;;5053894;28;20468;-52
2022/02/03 07:23:31;;;;;;;11.83;7.57;;;;;;;;;;5065633;28;20415;-51
2022/02/03 07:25:58;;;;;;;12.33;7.83;;;;;;;;;;5065827;28;20401;-51
2022/02/03 07:28:24;;;;;;;15.67;8.10;;;;;;;;;;5063188;28;20410;-50
2022/02/03 07:30:50;;;;;;;12.67;8.10;;;;;;;;;;5065314;28;20432;-51
2022/02/03 07:33:16;;;;;;;16.97;8.93;;;;;;;;;;5065840;28;20408;-51
2022/02/03 07:35:45;;;;;;;20.00;9.57;;;;;;;;;;5061963;28;20443;-51
2022/02/03 07:38:11;;;;;;;16.20;8.50;;;;;;;;;;5065306;28;20399;-51
2022/02/03 07:40:37;;;;;;;18.03;10.17;;;;;;;;;;5066617;28;20460;-51
2022/02/03 07:43:05;;;;;;;15.27;9.77;;;;;;;;;;5067204;28;20429;-51
2022/02/03 07:45:32;;;;;;;18.77;10.00;;;;;;;;;;5066301;28;20409;-51
2022/02/03 07:47:58;;;;;;;16.13;9.53;;;;;;;;;;5066289;28;20434;-51
2022/02/03 07:50:24;;;;;;;11.70;8.50;;;;;;;;;;5066732;28;20419;-51
2022/02/03 07:52:50;;;;;;;17.63;10.10;;;;;;;;;;5066911;28;20408;-51
2022/02/03 07:55:17;;;;;;;17.87;9.73;;;;;;;;;;5064767;28;20431;-51
2022/02/03 07:57:44;;;;;;;18.20;10.17;;;;;;;;;;5064553;28;21023;-51
2022/02/03 08:00:10;;;;;;;17.63;11.30;;;;;;;;;;5065253;28;20410;-51
2022/02/03 08:02:36;;;;;;;24.10;10.87;;;;;;;;;;5063027;28;20550;-51
2022/02/03 08:05:05;;;;;;;17.83;10.70;;;;;;;;;;5066214;28;20409;-51
2022/02/03 08:07:33;;;;;;;15.60;8.80;;;;;;;;;;5065736;28;20408;-51
2022/02/03 08:10:05;;;;;;;19.00;11.10;;;;;;;;;;5066090;28;20789;-51
2022/02/03 08:12:34;;;;;;;18.23;10.57;;;;;;;;;;5057862;28;20469;-51
2022/02/03 08:15:02;;;;;;;21.13;11.90;;;;;;;;;;5050928;28;20959;-51
2022/02/03 08:17:40;;;;;;;23.27;9.83;;;;;;;;;;5064477;28;20963;-51
2022/02/03 08:20:12;;;;;;;15.93;10.23;;;;;;;;;;5064615;28;20414;-52
2022/02/03 08:22:52;;;;;;;18.93;10.67;;;;;;;;;;5065535;28;20404;-51
2022/02/03 08:25:23;;;;;;;15.83;9.43;;;;;;;;;;5065747;28;20397;-51
2022/02/03 08:30:30;;;;;;;18.37;10.50;;;;;;;;;;5066105;28;20436;-51
2022/02/03 08:32:59;;;;;;;17.23;9.20;;;;;;;;;;5061756;28;21069;-51
2022/02/03 08:38:13;;;;;;;15.70;9.53;;;;;;;;;;5042205;28;20514;-52
2022/02/03 08:43:12;;;;;;;11.83;8.23;;;;;;;;;;5041936;28;20424;-50
2022/02/03 08:45:38;;;;;;;14.33;9.27;;;;;;;;;;5041244;28;20433;-51
2022/02/03 08:48:05;;;;;;;16.17;8.77;;;;;;;;;;5061497;28;20489;-51
2022/02/03 08:50:33;;;;;;;12.70;7.57;;;;;;;;;;5064530;28;20421;-51
2022/02/03 08:53:10;;;;;;;18.23;8.83;;;;;;;;;;5065063;28;20400;-51
2022/02/03 09:32:45;;;;;;;14.33;8.33;;;;;;;;;;5064735;28;20412;-51
2022/02/03 09:36:52;;;;;;;13.20;8.87;;;;;;;;;;5065153;28;20480;-51
2022/02/03 09:39:28;;;;;;;15.97;9.70;;;;;;;;;;5065791;28;20401;-51
2022/02/03 09:53:17;;;;;;;13.53;8.90;;;;;;;;;;5043288;28;20464;-51
2022/02/03 10:01:04;;;;;;;12.70;9.67;;;;;;;;;;5044533;28;20494;-51
2022/02/03 10:03:40;;;;;;;19.43;10.80;;;;;;;;;;5044021;28;20413;-53
2022/02/03 10:06:13;;;;;;;14.07;9.87;;;;;;;;;;5041301;28;20407;-51
2022/02/03 10:08:49;;;;;;;16.37;10.87;;;;;;;;;;5049242;28;20547;-51
2022/02/03 10:11:15;;;;;;;18.10;10.10;;;;;;;;;;5049942;28;20448;-51
2022/02/03 10:13:50;;;;;;;14.10;10.17;;;;;;;;;;5052467;28;20452;-52
2022/02/03 10:16:17;;;;;;;15.77;9.57;;;;;;;;;;5051114;28;20408;-51
2022/02/03 10:18:44;;;;;;;11.77;8.30;;;;;;;;;;5056565;28;20431;-51
2022/02/03 10:21:14;;;;;;;15.73;9.17;;;;;;;;;;5057717;28;20483;-51
2022/02/03 10:23:54;;;;;;;14.50;9.00;;;;;;;;;;5058826;28;20772;-51
2022/02/03 10:26:20;;;;;;;15.70;9.03;;;;;;;;;;5042884;28;20970;-50
2022/02/03 10:28:54;;;;;;;13.10;8.30;;;;;;;;;;5039707;28;20408;-50
2022/02/03 10:31:23;;;;;;;16.57;7.97;;;;;;;;;;5040505;28;20425;-52
2022/02/03 10:33:53;;;;;;;16.47;9.13;;;;;;;;;;5042513;28;20412;-52
2022/02/03 10:36:41;;;;;;;11.50;8.40;;;;;;;;;;5042037;28;20436;-50
2022/02/03 11:08:28;;;;;;;16.87;9.57;;;;;;;;;;5060506;28;20455;-52
2022/02/03 11:10:58;;;;;;;9.57;7.00;;;;;;;;;;5062318;28;20443;-51
2022/02/03 11:13:30;;;;;;;15.33;8.30;;;;;;;;;;5061251;28;20404;-51
2022/02/03 11:15:56;;;;;;;13.47;8.10;;;;;;;;;;5062632;28;20401;-51
2022/02/03 11:18:24;;;;;;;14.20;8.33;;;;;;;;;;5060498;28;21060;-51
2022/02/03 11:20:50;;;;;;;13.57;8.30;;;;;;;;;;5049135;28;20507;-51
2022/02/03 11:40:14;;;;;;;12.43;8.70;;;;;;;;;;5044346;28;20405;-51
2022/02/03 11:48:02;;;;;;;11.03;7.37;;;;;;;;;;5046693;28;20438;-50
2022/02/03 11:50:57;;;;;;;10.47;6.73;;;;;;;;;;5056209;28;20492;-51
2022/02/03 11:58:43;;;;;;;9.03;6.50;;;;;;;;;;5067569;28;20463;-52
2022/02/03 12:01:30;;;;;;;7.23;6.13;;;;;;;;;;5067385;28;20463;-52
2022/02/03 12:12:37;;;;;;;6.03;5.20;;;;;;;;;;5066721;28;20426;-51
2022/02/03 12:18:43;;;;;;;6.17;4.97;;;;;;;;;;5065940;28;20418;-51
2022/02/03 12:20:50;;;;;;;7.63;4.80;;;;;;;;;;5064166;28;20859;-51
2022/02/03 12:23:47;;;;;;;4.90;4.40;;;;;;;;;;5066255;28;20399;-51
2022/02/03 12:26:27;;;;;;;6.67;5.37;;;;;;;;;;5067324;28;20403;-51
2022/02/03 12:28:58;;;;;;;6.13;5.10;;;;;;;;;;5066115;28;20400;-51
2022/02/03 12:31:51;;;;;;;6.80;4.53;;;;;;;;;;5066492;28;20610;-51
2022/02/03 12:37:05;;;;;;;6.37;5.30;;;;;;;;;;5066390;28;20433;-51
2022/02/03 12:39:38;;;;;;;6.27;5.07;;;;;;;;;;5064621;28;20412;-52
2022/02/03 12:42:18;;;;;;;5.37;4.53;;;;;;;;;;5065279;28;20493;-51
2022/02/03 12:44:45;;;;;;;7.80;5.30;;;;;;;;;;5064952;28;20444;-52
2022/02/03 12:47:12;;;;;;;8.13;5.10;;;;;;;;;;5065973;28;20427;-51
2022/02/03 12:49:38;;;;;;;10.00;5.40;;;;;;;;;;5065740;28;20494;-51
2022/02/03 12:52:23;;;;;;;6.13;5.30;;;;;;;;;;5053205;28;20461;-51
2022/02/03 12:54:49;;;;;;;10.33;4.90;;;;;;;;;;5045954;28;20407;-52
2022/02/03 12:57:26;;;;;;;10.33;5.10;;;;;;;;;;5045992;28;20986;-51
2022/02/03 13:00:04;;;;;;;10.53;5.37;;;;;;;;;;5045653;28;20395;-51
2022/02/03 13:02:30;;;;;;;6.80;5.40;;;;;;;;;;5044499;28;20479;-52
2022/02/03 13:04:56;;;;;;;5.43;4.40;;;;;;;;;;5045533;28;20396;-52
2022/02/03 13:07:25;;;;;;;6.73;5.30;;;;;;;;;;5044808;28;20408;-51
2022/02/03 13:10:02;;;;;;;7.27;5.57;;;;;;;;;;5045988;28;20435;-51
2022/02/03 13:12:34;;;;;;;6.10;5.50;;;;;;;;;;5046172;28;20396;-52
2022/02/03 13:15:03;;;;;;;10.13;6.10;;;;;;;;;;5046232;28;20397;-51
2022/02/03 13:17:37;;;;;;;6.20;4.93;;;;;;;;;;5045130;28;20400;-52
2022/02/03 13:20:14;;;;;;;5.83;5.20;;;;;;;;;;5044765;28;20419;-51
2022/02/03 13:22:53;;;;;;;6.60;5.90;;;;;;;;;;5045172;28;20432;-52
2022/02/03 13:25:30;;;;;;;6.73;5.50;;;;;;;;;;5045348;28;20428;-52
2022/02/03 13:28:11;;;;;;;8.37;5.03;;;;;;;;;;5045134;28;20490;-52
2022/02/03 13:31:05;;;;;;;11.23;5.60;;;;;;;;;;5031608;28;20432;-50
2022/02/03 13:33:29;;;;;;;9.57;5.97;;;;;;;;;;5030831;28;20423;-51
2022/02/03 13:36:02;;;;;;;6.10;5.10;;;;;;;;;;5036832;28;20908;-50
2022/02/03 13:38:39;;;;;;;9.70;5.40;;;;;;;;;;5051619;28;20406;-50
2022/02/03 13:41:16;;;;;;;7.23;6.20;;;;;;;;;;5051227;28;20517;-50
2022/02/03 13:43:43;;;;;;;9.33;5.93;;;;;;;;;;5051486;28;20404;-50
2022/02/03 13:46:09;;;;;;;6.10;5.50;;;;;;;;;;5051264;28;20815;-50
2022/02/03 13:48:38;;;;;;;6.90;6.20;;;;;;;;;;5051322;28;20444;-50
2022/02/03 13:51:08;;;;;;;7.77;5.80;;;;;;;;;;5048446;28;20523;-50
2022/02/03 14:20:45;;;;;;;6.40;5.20;;;;;;;;;;5050413;28;20470;-54
2022/02/03 14:28:49;;;;;;;5.90;5.30;;;;;;;;;;5028206;28;20412;-50
2022/02/03 14:31:15;;;;;;;5.57;5.03;;;;;;;;;;5028427;28;20527;-50
2022/02/03 14:33:42;;;;;;;7.50;5.60;;;;;;;;;;5029548;28;20456;-50
2022/02/03 14:36:15;;;;;;;8.13;6.20;;;;;;;;;;5030887;28;20407;-50
2022/02/03 14:41:17;;;;;;;9.40;5.80;;;;;;;;;;5030731;28;20567;-52
2022/02/03 14:43:44;;;;;;;12.50;5.63;;;;;;;;;;5030757;28;20939;-50
2022/02/03 14:46:14;;;;;;;6.90;5.20;;;;;;;;;;5030775;28;20405;-50
2022/02/03 14:48:43;;;;;;;5.63;5.00;;;;;;;;;;5030588;28;20424;-51
2022/02/03 14:51:21;;;;;;;7.30;5.70;;;;;;;;;;5038235;28;20980;-51
2022/02/03 14:53:52;;;;;;;5.47;4.90;;;;;;;;;;5050578;28;20408;-50
2022/02/03 14:59:02;;;;;;;8.27;5.13;;;;;;;;;;5050662;28;20407;-50
2022/02/03 15:01:32;;;;;;;7.07;5.40;;;;;;;;;;5050373;28;20846;-51
2022/02/03 15:03:59;;;;;;;5.50;4.47;;;;;;;;;;5041324;28;20518;-50
2022/02/03 15:06:28;;;;;;;6.73;6.03;;;;;;;;;;5032741;28;20416;-51
2022/02/03 15:09:11;;;;;;;7.27;5.80;;;;;;;;;;5030394;28;20403;-50
2022/02/03 15:11:54;;;;;;;7.93;5.13;;;;;;;;;;5030804;28;21136;-50
2022/02/03 15:14:20;;;;;;;6.77;5.50;;;;;;;;;;5034583;28;20408;-50
2022/02/03 15:16:46;;;;;;;5.90;5.20;;;;;;;;;;5034017;28;20963;-51
2022/02/03 15:19:12;;;;;;;6.43;5.60;;;;;;;;;;5041749;28;20424;-50
2022/02/03 15:21:40;;;;;;;10.40;5.70;;;;;;;;;;5040598;28;20472;-50
2022/02/03 15:24:06;;;;;;;8.03;5.40;;;;;;;;;;5053160;28;20438;-50
2022/02/03 15:26:32;;;;;;;8.57;5.50;;;;;;;;;;5053265;28;20891;-50
2022/02/03 15:28:58;;;;;;;6.87;5.00;;;;;;;;;;5053854;28;20399;-50
2022/02/03 15:31:30;;;;;;;9.13;6.00;;;;;;;;;;5052621;28;20503;-50
2022/02/03 15:34:04;;;;;;;10.23;6.13;;;;;;;;;;5053845;28;20435;-50
2022/02/03 15:36:32;;;;;;;5.93;5.33;;;;;;;;;;5052935;28;20415;-52
2022/02/03 15:38:58;;;;;;;6.90;5.30;;;;;;;;;;5053661;28;20442;-51
2022/02/03 15:41:28;;;;;;;8.83;6.50;;;;;;;;;;5053803;28;20458;-51
2022/02/03 15:43:56;;;;;;;8.30;7.00;;;;;;;;;;5053773;28;20926;-50
2022/02/03 15:46:24;;;;;;;5.90;5.20;;;;;;;;;;5053995;28;20399;-50
2022/02/03 16:17:37;;;;;;;9.03;6.27;;;;;;;;;;5053151;28;20450;-51
2022/02/03 16:20:12;;;;;;;8.90;6.20;;;;;;;;;;5052099;28;20394;-50
2022/02/03 16:55:09;;;;;;;11.73;7.47;;;;;;;;;;5032638;28;20183;-50
2022/02/03 16:57:35;;;;;;;8.37;7.00;;;;;;;;;;5032674;28;20467;-50
2022/02/03 17:00:10;;;;;;;11.40;8.20;;;;;;;;;;5049744;28;20440;-49
2022/02/03 17:02:37;;;;;;;9.07;7.30;;;;;;;;;;5052563;28;20406;-51
2022/02/03 17:05:03;;;;;;;10.70;8.30;;;;;;;;;;5048861;28;20413;-50
2022/02/03 17:07:29;;;;;;;13.30;9.40;;;;;;;;;;5051985;28;20413;-50
2022/02/03 17:09:56;;;;;;;13.40;8.03;;;;;;;;;;5033339;28;20434;-50
2022/02/03 17:12:22;;;;;;;14.17;9.63;;;;;;;;;;5030757;28;20510;-50
2022/02/03 17:14:48;;;;;;;10.43;7.73;;;;;;;;;;5031156;28;20547;-50
2022/02/03 17:17:20;;;;;;;13.43;9.13;;;;;;;;;;5032081;28;20419;-50
2022/02/03 17:19:46;;;;;;;11.70;8.47;;;;;;;;;;5042324;28;20421;-50
2022/02/03 17:22:14;;;;;;;13.50;8.30;;;;;;;;;;5051572;28;20466;-51
2022/02/03 17:24:47;;;;;;;11.23;8.57;;;;;;;;;;5051963;28;20414;-50
2022/02/03 17:27:23;;;;;;;13.15;8.13;;;;;;;;;;5051912;28;20395;-50
2022/02/03 18:26:06;;;;;;;16.20;10.30;;;;;;;;;;5031558;28;20922;-50
2022/02/03 18:50:22;;;;;;;20.20;11.13;;;;;;;;;;5064494;28;20438;-52
2022/02/03 18:53:06;;;;;;;16.30;10.40;;;;;;;;;;5065038;28;20420;-51
2022/02/03 19:01:25;;;;;;;17.17;11.90;;;;;;;;;;5064559;28;20221;-52
2022/02/03 19:23:09;;;;;;;19.57;13.60;;;;;;;;;;5065593;28;20187;-51
2022/02/03 19:29:12;;;;;;;20.30;12.90;;;;;;;;;;5064789;28;20398;-51
2022/02/03 20:03:44;;;;;;;21.20;12.97;;;;;;;;;;5044191;28;20414;-51
2022/02/03 20:11:32;;;;;;;22.20;12.50;;;;;;;;;;5044772;28;20207;-51
2022/02/03 20:13:58;;;;;;;18.83;12.07;;;;;;;;;;5044622;28;20399;-51
2022/02/03 20:16:24;;;;;;;21.40;13.63;;;;;;;;;;5051891;28;20489;-52
2022/02/03 20:18:50;;;;;;;18.97;13.63;;;;;;;;;;5046389;28;20488;-51
2022/02/03 20:21:17;;;;;;;22.73;13.47;;;;;;;;;;5057759;28;20529;-51
2022/02/03 20:23:44;;;;;;;22.73;13.85;;;;;;;;;;5064463;28;20417;-51
2022/02/03 20:26:12;;;;;;;24.20;13.35;;;;;;;;;;5062634;28;20183;-51
2022/02/03 20:28:38;;;;;;;18.13;13.33;;;;;;;;;;5063312;28;20165;-51
2022/02/03 20:31:05;;;;;;;21.57;12.57;;;;;;;;;;5063919;28;20418;-51
2022/02/03 20:33:31;;;;;;;26.97;15.07;;;;;;;;;;5064152;28;20413;-51
2022/02/03 20:35:57;;;;;;;28.67;15.07;;;;;;;;;;5063304;28;20858;-51
2022/02/03 20:38:23;;;;;;;21.23;14.00;;;;;;;;;;5064653;28;20408;-52
2022/02/03 20:40:49;;;;;;;27.50;14.43;;;;;;;;;;5064583;28;20457;-51
2022/02/03 20:43:15;;;;;;;22.35;13.88;;;;;;;;;;5065038;28;20825;-51
2022/02/03 20:45:41;;;;;;;25.50;15.80;;;;;;;;;;5064112;28;20223;-51
2022/02/03 20:48:08;;;;;;;26.42;15.45;;;;;;;;;;5065192;28;20425;-51
2022/02/03 20:50:38;;;;;;;23.20;13.97;;;;;;;;;;5065446;28;20596;-52
2022/02/03 20:53:04;;;;;;;23.67;14.93;;;;;;;;;;5065031;28;20398;-51
2022/02/03 20:55:30;;;;;;;25.13;16.00;;;;;;;;;;5063538;28;20167;-51
2022/02/03 20:57:56;;;;;;;26.15;16.02;;;;;;;;;;5062060;28;20429;-51
2022/02/03 21:00:26;;;;;;;33.50;16.77;;;;;;;;;;5064321;28;20191;-52
2022/02/03 21:03:07;;;;;;;28.40;16.50;;;;;;;;;;5064773;28;20394;-51
2022/02/03 21:05:33;;;;;;;25.95;16.25;;;;;;;;;;5064975;28;20170;-51
2022/02/03 21:07:59;;;;;;;26.00;14.80;;;;;;;;;;5065875;28;20172;-52
2022/02/03 21:10:29;;;;;;;25.17;15.63;;;;;;;;;;5062920;28;20430;-52
2022/02/03 21:12:55;;;;;;;32.33;15.50;;;;;;;;;;5048799;28;20465;-52
2022/02/03 21:15:31;;;;;;;26.42;16.83;;;;;;;;;;5044189;28;20421;-51
2022/02/03 21:18:01;;;;;;;23.20;14.60;;;;;;;;;;5044888;28;20168;-51
2022/02/03 21:20:27;;;;;;;24.30;14.43;;;;;;;;;;5044671;28;20429;-51
2022/02/03 21:22:53;;;;;;;22.73;14.80;;;;;;;;;;5044828;28;20410;-51
2022/02/03 21:25:26;;;;;;;22.77;14.65;;;;;;;;;;5044633;28;20395;-51
2022/02/03 21:27:54;;;;;;;19.70;14.43;;;;;;;;;;5044834;28;20165;-52
2022/02/03 21:30:21;;;;;;;28.60;16.55;;;;;;;;;;5044182;28;20415;-52
2022/02/03 21:32:48;;;;;;;21.90;15.40;;;;;;;;;;5044302;28;20181;-51
2022/02/03 21:35:14;;;;;;;26.73;15.67;;;;;;;;;;5045103;28;20438;-51
2022/02/03 21:37:41;;;;;;;25.60;16.43;;;;;;;;;;5044422;28;20406;-51
2022/02/03 21:40:08;;;;;;;27.75;15.27;;;;;;;;;;5039746;28;20437;-51
2022/02/03 21:42:34;;;;;;;23.13;15.47;;;;;;;;;;5031597;28;20663;-51
2022/02/03 21:45:00;;;;;;;30.40;16.70;;;;;;;;;;5031755;28;20405;-52
2022/02/03 21:47:26;;;;;;;34.47;16.90;;;;;;;;;;5031485;28;20446;-51
2022/02/03 21:49:53;;;;;;;33.57;17.07;;;;;;;;;;5030972;28;20440;-52
2022/02/03 21:52:21;;;;;;;32.40;17.63;;;;;;;;;;5031236;28;20866;-51
2022/02/03 21:54:47;;;;;;;30.90;16.63;;;;;;;;;;5031544;28;20407;-51
2022/02/03 21:57:15;;;;;;;24.80;15.37;;;;;;;;;;5031350;28;20410;-51
2022/02/03 21:59:42;;;;;;;27.10;15.07;;;;;;;;;;5031222;28;20442;-52
2022/02/03 22:02:09;;;;;;;26.60;15.20;;;;;;;;;;5031161;28;20459;-51
2022/02/03 22:04:36;;;;;;;29.03;16.10;;;;;;;;;;5031256;28;20576;-52
2022/02/03 22:07:02;;;;;;;24.43;14.70;;;;;;;;;;5031189;28;20411;-52
2022/02/03 22:09:28;;;;;;;22.57;14.13;;;;;;;;;;5031044;28;20407;-51
2022/02/03 22:11:54;;;;;;;22.63;14.73;;;;;;;;;;5031043;28;20453;-52
2022/02/03 22:14:20;;;;;;;26.60;16.10;;;;;;;;;;5031071;28;20430;-51
2022/02/03 22:16:48;;;;;;;25.00;14.97;;;;;;;;;;5031055;28;20771;-52
2022/02/03 22:19:14;;;;;;;22.73;14.37;;;;;;;;;;5030815;28;20490;-52
2022/02/03 22:21:48;;;;;;;22.03;14.60;;;;;;;;;;5030043;28;20577;-52
2022/02/03 22:24:33;;;;;;;22.00;14.63;;;;;;;;;;5031200;28;20464;-52
2022/02/03 22:38:33;;;;;;;23.17;13.40;;;;;;;;;;5030857;28;20756;-51
2022/02/03 22:46:14;;;;;;;24.73;14.37;;;;;;;;;;5010077;28;20522;-51
2022/02/03 22:48:40;;;;;;;30.77;15.70;;;;;;;;;;5026956;28;20965;-51
2022/02/03 22:51:08;;;;;;;24.83;15.20;;;;;;;;;;5030705;28;20419;-52
2022/02/03 22:53:36;;;;;;;22.70;15.43;;;;;;;;;;5030888;28;20437;-51
2022/02/03 22:56:03;;;;;;;26.63;15.20;;;;;;;;;;5030834;28;20403;-51
2022/02/03 23:00:08;;;;;;;30.70;18.20;;;;;;;;;;5030679;28;20399;-51
2022/02/03 23:01:25;;;;;;;26.83;15.93;;;;;;;;;;5025600;28;20512;-51
2022/02/03 23:03:56;;;;;;;30.75;17.83;;;;;;;;;;5030660;28;20433;-51
2022/02/03 23:06:24;;;;;;;28.02;16.40;;;;;;;;;;5030759;28;20660;-51
2022/02/03 23:21:43;;;;;;;30.15;17.25;;;;;;;;;;5050282;28;20460;-52
2022/02/03 23:24:09;;;;;;;31.80;19.43;;;;;;;;;;5050160;28;20177;-51
2022/02/03 23:26:35;;;;;;;32.83;18.37;;;;;;;;;;5050312;28;20492;-51
2022/02/03 23:29:04;;;;;;;32.03;17.30;;;;;;;;;;5050054;28;20444;-52
2022/02/03 23:31:37;;;;;;;29.27;17.27;;;;;;;;;;5048016;28;20441;-52
2022/02/03 23:34:04;;;;;;;34.63;19.30;;;;;;;;;;5052333;28;20163;-52
2022/02/03 23:36:30;;;;;;;32.23;18.50;;;;;;;;;;5053041;28;20394;-51
2022/02/03 23:39:09;;;;;;;33.73;17.80;;;;;;;;;;5053786;28;20480;-51
